Time;durP1;ratioP1;P1;durP2;ratioP2;P2;SDS_P1;SDS_P2;PMS_P1;PMS_P2;Temp;Humidity;BMP_temperature;BMP_pressure;BME280_temperature;BME280_humidity;BME280_pressure;Samples;Min_cycle;Max_cycle;Signal;HPM_P1;HPM_P2
2023/05/16 00:00:24;;;;;;;10.13;2.20;;;8.90;99.90;;;;;;5086882;28;20451;-77
2023/05/16 00:02:50;;;;;;;10.20;2.13;;;8.90;99.90;;;;;;5086358;28;20083;-78
2023/05/16 00:05:16;;;;;;;8.05;2.28;;;9.10;99.90;;;;;;5085726;28;20077;-78
2023/05/16 00:07:43;;;;;;;11.90;3.15;;;8.80;99.90;;;;;;5067312;28;20549;-78
2023/05/16 00:10:10;;;;;;;17.50;2.80;;;8.80;99.90;;;;;;5086857;28;20058;-78
2023/05/16 00:12:38;;;;;;;8.35;2.10;;;8.70;99.90;;;;;;5087008;28;20051;-78
2023/05/16 00:15:07;;;;;;;12.60;2.30;;;8.70;99.90;;;;;;5086160;28;20140;-78
2023/05/16 00:17:34;;;;;;;11.68;3.17;;;8.70;99.90;;;;;;5069416;28;20046;-78
2023/05/16 00:20:00;;;;;;;13.98;2.70;;;8.70;99.90;;;;;;5073239;28;20107;-78
2023/05/16 00:22:26;;;;;;;9.15;2.00;;;8.60;99.90;;;;;;5048437;28;20052;-78
2023/05/16 00:24:52;;;;;;;11.05;2.47;;;8.60;99.90;;;;;;5084202;28;20046;-78
2023/05/16 00:27:17;;;;;;;7.47;1.92;;;8.60;99.90;;;;;;5069130;28;20052;-78
2023/05/16 00:29:43;;;;;;;9.93;2.55;;;8.50;99.90;;;;;;5086739;28;20048;-78
2023/05/16 00:32:08;;;;;;;12.73;2.58;;;8.50;99.90;;;;;;5067782;28;20059;-78
2023/05/16 00:34:35;;;;;;;11.32;2.10;;;8.50;99.90;;;;;;5067680;28;20127;-78
2023/05/16 00:37:00;;;;;;;10.32;2.38;;;8.50;99.90;;;;;;5068067;28;20047;-78
2023/05/16 00:39:26;;;;;;;9.63;2.40;;;8.40;99.90;;;;;;5086378;28;20113;-78
2023/05/16 00:41:52;;;;;;;11.38;2.10;;;8.40;99.90;;;;;;5086399;28;20047;-78
2023/05/16 00:44:17;;;;;;;8.60;2.17;;;8.40;99.90;;;;;;5068061;28;20071;-78
2023/05/16 00:46:43;;;;;;;12.70;2.42;;;8.30;99.90;;;;;;5070583;28;20056;-78
2023/05/16 00:49:09;;;;;;;15.93;3.10;;;8.30;99.90;;;;;;5080083;28;20505;-78
2023/05/16 00:51:37;;;;;;;6.85;2.35;;;8.30;99.90;;;;;;5074950;28;20040;-78
2023/05/16 00:54:03;;;;;;;8.57;2.25;;;8.20;99.90;;;;;;5060125;28;20088;-78
2023/05/16 00:56:29;;;;;;;8.00;2.17;;;8.20;99.90;;;;;;5086798;28;20087;-78
2023/05/16 00:58:55;;;;;;;9.13;2.22;;;8.10;99.90;;;;;;5086643;28;20079;-78
2023/05/16 01:01:24;;;;;;;6.68;2.00;;;8.10;99.90;;;;;;5069411;28;20055;-78
2023/05/16 01:03:50;;;;;;;9.90;2.13;;;8.10;99.90;;;;;;5086443;28;20032;-78
2023/05/16 01:06:16;;;;;;;13.93;2.75;;;8.00;99.90;;;;;;5085542;28;20406;-78
2023/05/16 01:08:42;;;;;;;8.43;1.88;;;8.00;99.90;;;;;;5068736;28;20490;-78
2023/05/16 01:11:32;;;;;;;8.00;2.28;;;8.00;99.90;;;;;;5068505;28;20047;-78
2023/05/16 01:14:05;;;;;;;7.68;2.13;;;7.90;99.90;;;;;;5070868;28;20052;-78
2023/05/16 01:16:44;;;;;;;9.48;2.17;;;7.90;99.90;;;;;;5086498;28;20090;-78
2023/05/16 01:19:19;;;;;;;10.15;2.53;;;7.80;99.90;;;;;;5076781;28;20048;-78
2023/05/16 01:22:15;;;;;;;11.98;2.00;;;7.80;99.90;;;;;;5073598;28;20062;-77
2023/05/16 01:25:04;;;;;;;10.45;2.20;;;7.80;99.90;;;;;;5080613;28;20060;-78
2023/05/16 01:27:30;;;;;;;13.55;2.25;;;7.80;99.90;;;;;;5073305;28;20382;-78
2023/05/16 01:30:16;;;;;;;8.18;2.10;;;7.70;99.90;;;;;;5089358;28;20542;-78
2023/05/16 01:32:42;;;;;;;9.23;2.47;;;7.70;99.90;;;;;;5091213;28;20443;-78
2023/05/16 01:35:10;;;;;;;13.02;2.15;;;7.70;99.90;;;;;;5091344;28;20048;-78
2023/05/16 01:37:53;;;;;;;8.80;2.17;;;7.70;99.90;;;;;;5056643;28;20052;-78
2023/05/16 01:40:42;;;;;;;11.43;2.55;;;7.70;99.90;;;;;;5074708;28;20466;-78
2023/05/16 01:43:11;;;;;;;8.50;2.10;;;7.90;99.90;;;;;;5076790;28;20090;-77
2023/05/16 01:45:45;;;;;;;8.02;2.03;;;7.60;99.90;;;;;;5088182;28;20129;-77
2023/05/16 01:48:17;;;;;;;10.85;1.98;;;7.60;99.90;;;;;;5088838;28;20048;-78
2023/05/16 01:50:47;;;;;;;10.18;2.55;;;7.50;99.90;;;;;;5055225;28;20044;-78
2023/05/16 01:53:17;;;;;;;12.43;2.85;;;7.50;99.90;;;;;;5089217;28;20044;-78
2023/05/16 01:55:45;;;;;;;13.38;2.15;;;7.50;99.90;;;;;;5090496;28;20040;-78
2023/05/16 01:58:13;;;;;;;10.63;3.05;;;7.40;99.90;;;;;;5071771;28;20044;-78
2023/05/16 02:00:39;;;;;;;9.63;1.80;;;7.40;99.90;;;;;;5056082;28;20048;-78
2023/05/16 02:03:05;;;;;;;9.25;2.72;;;7.40;99.90;;;;;;5070631;28;20047;-78
2023/05/16 02:05:31;;;;;;;9.85;1.80;;;7.30;99.90;;;;;;5071486;28;20039;-78
2023/05/16 02:08:00;;;;;;;8.18;2.13;;;7.30;99.90;;;;;;5088692;28;20048;-77
2023/05/16 02:10:26;;;;;;;11.52;2.42;;;7.30;99.90;;;;;;5090774;28;20479;-78
2023/05/16 02:12:52;;;;;;;8.57;2.63;;;7.30;99.90;;;;;;5088861;28;20051;-78
2023/05/16 02:15:18;;;;;;;7.78;1.80;;;7.20;99.90;;;;;;5088777;28;20418;-78
2023/05/16 02:17:44;;;;;;;9.15;1.90;;;7.20;99.90;;;;;;5070275;28;20048;-78
2023/05/16 02:20:12;;;;;;;7.35;1.90;;;7.10;99.90;;;;;;5071575;28;20055;-78
2023/05/16 02:22:42;;;;;;;10.65;1.92;;;7.10;99.90;;;;;;5089683;28;20571;-78
2023/05/16 02:25:09;;;;;;;6.90;1.75;;;7.10;99.90;;;;;;5035378;28;20052;-78
2023/05/16 02:27:35;;;;;;;7.30;1.90;;;7.10;99.90;;;;;;5070447;28;20505;-78
2023/05/16 02:30:01;;;;;;;8.75;2.05;;;7.10;99.90;;;;;;5087299;28;20036;-78
2023/05/16 02:32:26;;;;;;;7.13;1.75;;;7.10;99.90;;;;;;5071003;28;20048;-78
2023/05/16 02:34:52;;;;;;;8.55;2.25;;;7.10;99.90;;;;;;5067993;28;20134;-78
2023/05/16 02:37:17;;;;;;;10.05;2.38;;;7.10;99.90;;;;;;5089003;28;20052;-78
2023/05/16 02:39:43;;;;;;;7.95;1.80;;;7.20;99.90;;;;;;5087668;28;20093;-78
2023/05/16 02:42:09;;;;;;;7.50;2.05;;;7.30;99.90;;;;;;5072088;28;20054;-78
2023/05/16 02:44:34;;;;;;;7.82;2.53;;;7.30;99.90;;;;;;5089155;28;20559;-78
2023/05/16 02:47:00;;;;;;;12.00;2.63;;;7.30;99.90;;;;;;5079917;28;20084;-78
2023/05/16 02:49:25;;;;;;;8.38;2.30;;;7.30;99.90;;;;;;5039561;28;20057;-78
2023/05/16 02:51:51;;;;;;;8.20;1.92;;;7.40;99.90;;;;;;5080182;28;20525;-78
2023/05/16 02:54:17;;;;;;;5.45;1.75;;;7.40;99.90;;;;;;5069472;28;20119;-78
2023/05/16 02:56:43;;;;;;;11.38;2.63;;;7.30;99.90;;;;;;5087755;28;20040;-78
2023/05/16 02:59:10;;;;;;;9.80;2.05;;;7.30;99.90;;;;;;5070463;28;20047;-78
2023/05/16 03:01:36;;;;;;;9.30;2.15;;;7.30;99.90;;;;;;5070523;28;20093;-78
2023/05/16 03:04:02;;;;;;;9.85;2.40;;;7.30;99.90;;;;;;5070130;28;20056;-78
2023/05/16 03:06:29;;;;;;;12.27;2.15;;;7.30;99.90;;;;;;5073898;28;20044;-78
2023/05/16 03:08:55;;;;;;;5.53;2.15;;;7.20;99.90;;;;;;5043078;28;20048;-78
2023/05/16 03:11:21;;;;;;;10.55;2.25;;;7.70;99.90;;;;;;5067696;28;20032;-78
2023/05/16 03:13:47;;;;;;;11.35;2.00;;;7.10;99.90;;;;;;5059396;28;20036;-78
2023/05/16 03:16:12;;;;;;;5.47;1.52;;;7.10;99.90;;;;;;5057407;28;20044;-78
2023/05/16 03:18:38;;;;;;;5.85;1.70;;;7.00;99.90;;;;;;5041836;28;20119;-78
2023/05/16 03:21:04;;;;;;;10.88;2.60;;;7.00;99.90;;;;;;5088953;28;20123;-77
2023/05/16 03:23:29;;;;;;;8.63;2.50;;;6.90;99.90;;;;;;5069021;28;20461;-78
2023/05/16 03:25:55;;;;;;;8.18;2.25;;;6.90;99.90;;;;;;5087580;28;20040;-78
2023/05/16 03:28:21;;;;;;;10.55;2.67;;;6.80;99.90;;;;;;5087562;28;20481;-77
2023/05/16 03:30:46;;;;;;;11.82;2.40;;;6.70;99.90;;;;;;5071360;28;20044;-78
2023/05/16 03:33:12;;;;;;;12.32;2.22;;;6.70;99.90;;;;;;5087753;28;20043;-78
2023/05/16 03:35:38;;;;;;;11.13;2.28;;;6.70;99.90;;;;;;5088327;28;20047;-78
2023/05/16 03:38:03;;;;;;;9.05;2.33;;;6.70;99.90;;;;;;5086557;28;20086;-78
2023/05/16 03:40:29;;;;;;;7.97;2.28;;;6.70;99.90;;;;;;5066273;28;20048;-78
2023/05/16 03:42:55;;;;;;;8.13;2.33;;;6.70;99.90;;;;;;5068948;28;20043;-78
2023/05/16 03:45:21;;;;;;;10.82;2.88;;;6.60;99.90;;;;;;5069937;28;20032;-78
2023/05/16 03:47:48;;;;;;;9.35;1.98;;;6.60;99.90;;;;;;5087994;28;20504;-76
2023/05/16 03:50:14;;;;;;;10.40;2.15;;;6.60;99.90;;;;;;5086743;28;20105;-76
2023/05/16 03:52:40;;;;;;;7.30;2.45;;;6.60;99.90;;;;;;5086456;28;20059;-78
2023/05/16 03:55:06;;;;;;;11.65;2.10;;;6.60;99.90;;;;;;5085930;28;20391;-77
2023/05/16 03:57:32;;;;;;;15.38;3.45;;;6.60;99.90;;;;;;5068092;28;20432;-77
2023/05/16 03:59:58;;;;;;;9.52;2.30;;;6.60;99.90;;;;;;5087783;28;20040;-76
2023/05/16 04:02:24;;;;;;;10.05;2.72;;;6.60;99.90;;;;;;5053373;28;20048;-77
2023/05/16 04:04:50;;;;;;;8.20;2.38;;;6.60;99.90;;;;;;5053998;28;20052;-77
2023/05/16 04:07:16;;;;;;;9.57;2.47;;;6.60;99.90;;;;;;5071782;28;20044;-77
2023/05/16 04:09:42;;;;;;;10.65;2.13;;;6.60;99.90;;;;;;5087375;28;20048;-77
2023/05/16 04:12:08;;;;;;;7.07;2.33;;;6.60;99.90;;;;;;5067049;28;20048;-76
2023/05/16 04:14:34;;;;;;;9.68;2.30;;;6.70;99.90;;;;;;5072706;28;20054;-76
2023/05/16 04:17:00;;;;;;;9.98;2.88;;;6.70;99.90;;;;;;5065322;28;20052;-76
2023/05/16 04:19:26;;;;;;;9.70;2.33;;;6.70;99.90;;;;;;5073466;28;20059;-76
2023/05/16 04:21:51;;;;;;;8.50;2.47;;;6.70;99.90;;;;;;5086740;28;20498;-76
2023/05/16 04:24:17;;;;;;;6.78;2.13;;;6.70;99.90;;;;;;5085312;28;20039;-76
2023/05/16 04:26:43;;;;;;;7.25;2.45;;;6.70;99.90;;;;;;5087235;28;20097;-76
2023/05/16 04:29:10;;;;;;;11.23;2.35;;;6.80;99.90;;;;;;5086952;28;20051;-76
2023/05/16 04:31:36;;;;;;;7.88;2.60;;;6.80;99.90;;;;;;5087315;28;20491;-77
2023/05/16 04:34:02;;;;;;;7.15;2.60;;;6.90;99.90;;;;;;5082005;28;20055;-77
2023/05/16 04:36:28;;;;;;;12.05;2.50;;;7.00;99.90;;;;;;5085183;28;20390;-77
2023/05/16 04:38:55;;;;;;;10.30;2.33;;;7.00;99.90;;;;;;5080855;28;20057;-77
2023/05/16 04:41:21;;;;;;;6.93;2.08;;;7.10;99.90;;;;;;5067157;28;20056;-78
2023/05/16 04:43:47;;;;;;;6.72;1.80;;;7.10;99.90;;;;;;5066745;28;20091;-79
2023/05/16 04:46:14;;;;;;;10.45;2.13;;;7.10;99.90;;;;;;5087497;28;20082;-77
2023/05/16 04:48:40;;;;;;;7.72;2.10;;;7.20;99.90;;;;;;5087365;28;20055;-77
2023/05/16 04:51:06;;;;;;;11.65;2.92;;;7.20;99.90;;;;;;5087008;28;20040;-77
2023/05/16 04:53:32;;;;;;;7.25;2.13;;;7.30;99.90;;;;;;5087840;28;20150;-77
2023/05/16 04:55:57;;;;;;;10.52;2.08;;;7.30;99.90;;;;;;5088341;28;20142;-77
2023/05/16 04:58:23;;;;;;;10.27;2.55;;;7.40;99.90;;;;;;5072165;28;20086;-76
2023/05/16 05:00:51;;;;;;;9.45;1.98;;;7.40;99.90;;;;;;5090222;28;20047;-77
2023/05/16 05:03:16;;;;;;;5.65;2.05;;;7.40;99.90;;;;;;5071427;28;20040;-77
2023/05/16 05:05:42;;;;;;;9.02;2.25;;;7.50;99.90;;;;;;5089799;28;20040;-76
2023/05/16 05:08:08;;;;;;;8.18;2.20;;;7.60;99.90;;;;;;5071499;28;20178;-77
2023/05/16 05:10:34;;;;;;;8.52;2.20;;;7.60;99.90;;;;;;5071785;28;20462;-77
2023/05/16 05:13:00;;;;;;;7.97;2.03;;;7.70;99.90;;;;;;5090621;28;20044;-77
2023/05/16 05:15:26;;;;;;;10.30;2.25;;;7.80;99.90;;;;;;5091634;28;20117;-77
2023/05/16 05:17:52;;;;;;;10.32;1.98;;;7.80;99.90;;;;;;5089088;28;20078;-77
2023/05/16 05:20:18;;;;;;;6.68;2.00;;;7.90;99.90;;;;;;5087795;28;20076;-77
2023/05/16 05:22:44;;;;;;;7.82;2.22;;;8.00;99.90;;;;;;5059333;28;20036;-78
2023/05/16 05:25:09;;;;;;;6.72;2.15;;;8.10;99.90;;;;;;5067341;28;20040;-77
2023/05/16 05:27:35;;;;;;;6.80;1.73;;;8.20;99.90;;;;;;5054658;28;20040;-77
2023/05/16 05:30:02;;;;;;;8.35;2.10;;;8.30;99.90;;;;;;5090583;28;20048;-78
2023/05/16 05:32:28;;;;;;;9.32;2.33;;;8.60;99.90;;;;;;5090447;28;20043;-78
2023/05/16 05:34:54;;;;;;;6.03;1.80;;;9.60;99.90;;;;;;5091010;28;20694;-77
2023/05/16 05:37:20;;;;;;;6.60;1.90;;;10.60;99.90;;;;;;5090501;28;20066;-77
2023/05/16 05:39:45;;;;;;;6.72;1.80;;;11.60;99.90;;;;;;5089570;28;20043;-78
2023/05/16 05:42:11;;;;;;;10.18;1.88;;;12.40;99.90;;;;;;5088963;28;20044;-77
2023/05/16 05:44:37;;;;;;;9.98;1.90;;;12.80;99.90;;;;;;5072209;28;20048;-77
2023/05/16 05:47:04;;;;;;;9.05;1.90;;;13.40;99.90;;;;;;5067987;28;20530;-78
2023/05/16 05:49:30;;;;;;;7.30;1.60;;;13.70;99.90;;;;;;5068163;28;20068;-77
2023/05/16 05:51:56;;;;;;;5.97;1.70;;;14.20;99.90;;;;;;5059679;28;20489;-77
2023/05/16 05:54:22;;;;;;;8.60;2.25;;;14.50;99.90;;;;;;5061931;28;20049;-78
2023/05/16 05:56:48;;;;;;;5.50;1.60;;;14.80;99.90;;;;;;5052531;28;20053;-79
2023/05/16 05:59:14;;;;;;;7.30;1.80;;;14.90;99.90;;;;;;5068429;28;20449;-78
2023/05/16 06:01:41;;;;;;;7.85;1.67;;;15.00;99.90;;;;;;5067593;28;20044;-79
2023/05/16 06:04:06;;;;;;;7.28;1.40;;;14.80;99.90;;;;;;5055908;28;20041;-78
2023/05/16 06:06:32;;;;;;;6.82;1.55;;;15.00;99.90;;;;;;5069144;28;20040;-77
2023/05/16 06:08:58;;;;;;;8.65;1.95;;;15.20;99.90;;;;;;5066670;28;20114;-77
2023/05/16 06:11:24;;;;;;;4.18;1.60;;;15.40;99.90;;;;;;5068709;28;20509;-78
2023/05/16 06:13:50;;;;;;;9.13;2.17;;;15.60;99.90;;;;;;5068703;28;21077;-78
2023/05/16 06:16:16;;;;;;;4.05;1.40;;;15.80;99.90;;;;;;5064759;28;20571;-78
2023/05/16 06:18:42;;;;;;;5.97;1.65;;;15.80;99.90;;;;;;5066282;28;20148;-78
2023/05/16 06:21:08;;;;;;;6.50;2.53;;;15.60;99.90;;;;;;5066482;28;20055;-78
2023/05/16 06:23:34;;;;;;;8.68;1.63;;;15.00;99.90;;;;;;5067181;28;20040;-78
2023/05/16 06:26:01;;;;;;;7.75;2.03;;;14.00;99.90;;;;;;5066192;28;20109;-78
2023/05/16 06:28:27;;;;;;;11.40;2.10;;;13.20;99.90;;;;;;5066589;28;20213;-78
2023/05/16 06:30:53;;;;;;;8.25;2.00;;;12.60;99.90;;;;;;5068232;28;20044;-78
2023/05/16 06:33:19;;;;;;;6.15;1.80;;;12.30;99.90;;;;;;5067745;28;20095;-78
2023/05/16 06:35:47;;;;;;;6.35;1.50;;;12.00;99.90;;;;;;5067163;28;20076;-78
2023/05/16 06:38:13;;;;;;;6.97;1.75;;;11.80;99.90;;;;;;5065970;28;20043;-78
2023/05/16 06:40:39;;;;;;;6.28;1.42;;;11.70;99.90;;;;;;5068299;28;20696;-78
2023/05/16 06:43:08;;;;;;;4.50;1.42;;;11.80;99.90;;;;;;5066839;28;20051;-77
2023/05/16 06:45:33;;;;;;;11.10;2.15;;;11.60;99.90;;;;;;5068571;28;20511;-78
2023/05/16 06:47:59;;;;;;;8.85;2.28;;;11.60;99.90;;;;;;5030632;28;1070516;-77
2023/05/16 06:50:24;;;;;;;6.75;1.83;;;11.90;99.90;;;;;;5069374;28;20445;-77
2023/05/16 06:52:50;;;;;;;5.50;1.30;;;11.80;99.90;;;;;;5067428;28;20049;-77
2023/05/16 06:55:16;;;;;;;5.70;1.73;;;11.80;99.90;;;;;;5068108;28;20564;-78
2023/05/16 06:57:41;;;;;;;6.72;1.25;;;11.90;99.90;;;;;;5068246;28;20048;-78
2023/05/16 07:00:07;;;;;;;3.55;0.80;;;11.90;99.90;;;;;;5068517;28;20040;-78
2023/05/16 07:02:33;;;;;;;4.10;0.88;;;11.40;99.90;;;;;;5067449;28;20048;-77
2023/05/16 07:04:59;;;;;;;3.70;0.85;;;11.00;99.90;;;;;;5044272;28;20665;-78
2023/05/16 07:07:24;;;;;;;2.08;0.70;;;11.00;99.90;;;;;;5031463;28;20045;-78
2023/05/16 07:09:50;;;;;;;2.13;0.80;;;10.80;99.90;;;;;;5046971;28;20047;-78
2023/05/16 07:12:15;;;;;;;4.55;1.08;;;10.60;99.90;;;;;;5048318;28;20037;-78
2023/05/16 07:14:42;;;;;;;2.40;0.70;;;10.40;99.90;;;;;;5048654;28;20056;-78
2023/05/16 07:17:08;;;;;;;2.28;0.73;;;10.30;99.90;;;;;;5061483;28;20117;-78
2023/05/16 07:19:33;;;;;;;2.17;0.60;;;10.30;99.90;;;;;;5066346;28;20045;-78
2023/05/16 07:21:59;;;;;;;3.95;0.95;;;10.40;99.90;;;;;;5069593;28;20048;-78
2023/05/16 07:24:25;;;;;;;4.10;0.70;;;10.60;99.90;;;;;;5050523;28;20094;-78
2023/05/16 07:26:50;;;;;;;3.13;0.90;;;10.70;99.90;;;;;;5067703;28;20044;-78
2023/05/16 07:29:16;;;;;;;3.90;0.90;;;10.80;99.90;;;;;;5066688;28;20071;-78
2023/05/16 07:31:41;;;;;;;3.88;1.35;;;11.00;99.90;;;;;;5067671;28;20040;-78
2023/05/16 07:34:09;;;;;;;5.40;1.75;;;11.20;99.90;;;;;;5050973;28;20051;-78
2023/05/16 07:36:34;;;;;;;2.72;1.10;;;11.30;99.90;;;;;;5068528;28;20067;-78
2023/05/16 07:39:00;;;;;;;2.85;1.35;;;11.50;99.90;;;;;;5067137;28;20846;-77
2023/05/16 07:41:26;;;;;;;5.22;1.55;;;11.80;99.90;;;;;;5068929;28;20052;-78
2023/05/16 07:43:51;;;;;;;3.30;1.15;;;11.90;99.90;;;;;;5061986;28;20149;-78
2023/05/16 07:46:17;;;;;;;4.40;1.30;;;12.20;99.90;;;;;;5053964;28;20052;-78
2023/05/16 07:48:42;;;;;;;3.50;1.40;;;12.30;99.90;;;;;;5067200;28;20117;-78
2023/05/16 07:51:08;;;;;;;3.55;1.02;;;12.50;99.90;;;;;;5082436;28;20155;-78
2023/05/16 07:53:34;;;;;;;3.67;1.13;;;12.70;99.90;;;;;;5082615;28;20051;-78
2023/05/16 07:55:59;;;;;;;3.50;1.30;;;13.00;99.90;;;;;;5087596;28;20097;-79
2023/05/16 07:58:25;;;;;;;4.80;1.20;;;13.20;99.90;;;;;;5088278;28;20047;-78
2023/05/16 08:00:51;;;;;;;3.33;1.05;;;13.40;99.90;;;;;;5088503;28;20040;-78
2023/05/16 08:03:16;;;;;;;8.05;1.45;;;13.50;99.90;;;;;;5070536;28;20052;-78
2023/05/16 08:05:42;;;;;;;5.65;1.25;;;13.70;99.90;;;;;;5087838;28;20091;-79
2023/05/16 08:08:07;;;;;;;2.63;0.90;;;13.80;99.90;;;;;;5066221;28;20044;-79
2023/05/16 08:10:33;;;;;;;5.90;1.58;;;13.60;98.20;;;;;;5067788;28;20044;-79
2023/05/16 08:12:59;;;;;;;6.10;1.17;;;13.60;98.10;;;;;;5085571;28;20075;-78
2023/05/16 08:15:26;;;;;;;3.08;0.80;;;13.90;98.50;;;;;;5070415;28;20044;-78
2023/05/16 08:17:55;;;;;;;5.20;1.33;;;14.00;95.70;;;;;;5088321;28;20130;-77
2023/05/16 08:20:21;;;;;;;7.05;1.20;;;14.10;96.30;;;;;;5069257;28;20036;-78
2023/05/16 08:22:47;;;;;;;2.83;1.00;;;14.30;96.50;;;;;;5087302;28;20802;-78
2023/05/16 08:25:12;;;;;;;6.60;1.25;;;13.90;95.90;;;;;;5088122;28;20044;-78
2023/05/16 08:27:38;;;;;;;2.45;0.98;;;13.60;96.30;;;;;;5088129;28;20059;-79
2023/05/16 08:30:04;;;;;;;4.72;1.35;;;13.30;97.40;;;;;;5068444;28;20048;-79
2023/05/16 08:32:30;;;;;;;6.80;1.73;;;13.10;97.00;;;;;;5088559;28;20063;-78
2023/05/16 08:34:56;;;;;;;4.25;1.48;;;13.10;97.10;;;;;;5088169;28;20044;-78
2023/05/16 08:37:21;;;;;;;5.10;0.90;;;13.10;98.20;;;;;;5068896;28;20134;-78
2023/05/16 08:39:47;;;;;;;2.78;1.08;;;13.30;97.70;;;;;;5083210;28;20494;-79
2023/05/16 08:42:14;;;;;;;3.47;1.10;;;13.40;97.00;;;;;;5070637;28;20040;-79
2023/05/16 08:44:39;;;;;;;3.63;1.25;;;13.30;97.70;;;;;;5084890;28;20051;-79
2023/05/16 08:47:15;;;;;;;3.35;1.20;;;13.30;98.40;;;;;;5063949;28;20403;-79
2023/05/16 08:49:46;;;;;;;5.85;1.50;;;13.50;97.10;;;;;;5074334;28;20405;-79
2023/05/16 08:52:16;;;;;;;3.40;1.10;;;13.40;97.70;;;;;;5068963;28;20048;-83
2023/05/16 08:54:42;;;;;;;10.88;1.50;;;13.40;96.90;;;;;;5066177;28;20398;-80
2023/05/16 08:57:08;;;;;;;4.07;1.35;;;13.70;97.40;;;;;;5086655;28;20058;-79
2023/05/16 08:59:34;;;;;;;4.30;1.35;;;13.80;95.60;;;;;;5083710;28;20032;-80
2023/05/16 09:02:00;;;;;;;3.42;1.00;;;13.80;93.90;;;;;;5074814;28;20047;-80
2023/05/16 09:04:26;;;;;;;5.38;1.00;;;13.60;93.10;;;;;;5087786;28;20101;-79
2023/05/16 09:06:52;;;;;;;6.53;1.20;;;13.50;93.50;;;;;;5088117;28;20071;-79
2023/05/16 09:09:18;;;;;;;4.38;1.40;;;13.40;93.90;;;;;;5085998;28;20730;-79
2023/05/16 09:11:44;;;;;;;4.43;1.58;;;13.50;93.40;;;;;;5069949;28;20040;-78
2023/05/16 09:14:10;;;;;;;6.53;1.38;;;13.70;93.40;;;;;;5087623;28;20040;-78
2023/05/16 09:16:37;;;;;;;4.15;1.25;;;13.60;91.10;;;;;;5087247;28;20113;-75
2023/05/16 09:19:03;;;;;;;2.65;0.90;;;13.60;92.00;;;;;;5085090;28;20485;-76
2023/05/16 09:21:33;;;;;;;2.28;1.10;;;13.50;91.60;;;;;;5068405;28;20048;-76
2023/05/16 09:24:06;;;;;;;2.85;0.90;;;13.50;91.50;;;;;;5067479;28;20037;-78
2023/05/16 09:26:33;;;;;;;3.30;0.98;;;13.60;90.60;;;;;;5087651;28;20036;-79
2023/05/16 09:28:59;;;;;;;3.72;1.02;;;13.60;90.60;;;;;;5067814;28;20436;-79
2023/05/16 09:31:26;;;;;;;3.17;1.05;;;13.70;90.00;;;;;;5068574;28;20374;-78
2023/05/16 09:33:55;;;;;;;3.58;1.00;;;13.70;89.20;;;;;;5086645;28;20462;-78
2023/05/16 09:36:21;;;;;;;2.03;0.80;;;14.00;90.20;;;;;;5067169;28;20048;-79
2023/05/16 09:38:46;;;;;;;2.03;0.70;;;14.20;90.30;;;;;;5087370;28;20036;-79
2023/05/16 09:41:12;;;;;;;6.82;1.42;;;14.40;90.40;;;;;;5088786;28;20123;-79
2023/05/16 09:43:40;;;;;;;7.47;1.38;;;14.50;90.10;;;;;;5085429;28;20439;-79
2023/05/16 09:46:10;;;;;;;5.07;1.15;;;14.50;88.90;;;;;;5090604;28;20434;-78
2023/05/16 09:48:40;;;;;;;5.57;1.25;;;14.50;86.40;;;;;;5090712;28;20087;-79
2023/05/16 09:51:07;;;;;;;5.63;1.58;;;14.40;87.60;;;;;;5091210;28;20052;-79
2023/05/16 09:53:37;;;;;;;3.88;1.40;;;14.80;88.50;;;;;;5071733;28;20398;-78
2023/05/16 09:56:11;;;;;;;4.25;1.30;;;14.90;84.70;;;;;;5090937;28;20048;-78
2023/05/16 09:58:39;;;;;;;5.50;1.25;;;14.90;84.60;;;;;;5089058;28;20047;-78
2023/05/16 10:01:06;;;;;;;4.53;1.13;;;14.90;84.70;;;;;;5090841;28;20470;-81
2023/05/16 10:03:35;;;;;;;6.50;0.98;;;14.60;81.90;;;;;;5070457;28;20055;-82
2023/05/16 10:06:01;;;;;;;6.45;1.40;;;14.70;80.80;;;;;;5070864;28;20410;-82
2023/05/16 10:08:28;;;;;;;4.65;1.40;;;14.80;83.60;;;;;;5088296;28;20445;-79
2023/05/16 10:10:55;;;;;;;5.60;1.15;;;14.80;79.60;;;;;;5070943;28;20051;-79
2023/05/16 10:13:23;;;;;;;5.07;1.15;;;14.80;79.30;;;;;;5089147;28;20101;-78
2023/05/16 10:15:50;;;;;;;4.03;1.33;;;14.90;78.30;;;;;;5106103;28;20866;-78
2023/05/16 10:18:17;;;;;;;7.38;1.52;;;15.00;78.50;;;;;;5070335;28;20483;-78
2023/05/16 10:20:47;;;;;;;7.18;1.27;;;15.00;79.20;;;;;;5075940;28;20078;-78
2023/05/16 10:23:17;;;;;;;4.10;1.05;;;15.20;81.20;;;;;;5081382;28;20047;-78
2023/05/16 10:25:44;;;;;;;6.72;1.40;;;15.40;78.10;;;;;;5088482;28;20059;-78
2023/05/16 10:28:12;;;;;;;5.50;1.17;;;15.30;76.60;;;;;;5087663;28;20040;-78
2023/05/16 10:30:42;;;;;;;6.07;1.27;;;15.20;74.30;;;;;;5086803;28;20055;-78
2023/05/16 10:33:13;;;;;;;4.13;1.35;;;15.10;73.00;;;;;;5089604;28;20402;-80
2023/05/16 10:35:40;;;;;;;3.55;0.90;;;15.10;70.60;;;;;;5071748;28;20040;-77
2023/05/16 10:38:08;;;;;;;3.13;0.90;;;15.00;74.00;;;;;;5054655;28;20604;-78
2023/05/16 10:40:36;;;;;;;4.45;1.20;;;15.00;73.60;;;;;;5068952;28;20043;-78
2023/05/16 10:43:03;;;;;;;2.67;1.38;;;15.20;74.40;;;;;;5086523;28;20044;-78
2023/05/16 10:45:29;;;;;;;6.03;1.13;;;15.30;75.80;;;;;;5088510;28;20067;-78
2023/05/16 10:48:02;;;;;;;4.72;0.90;;;15.30;72.30;;;;;;5087635;28;20071;-78
2023/05/16 10:50:40;;;;;;;4.30;0.90;;;15.20;67.30;;;;;;5065795;28;20044;-78
2023/05/16 10:53:33;;;;;;;4.32;1.20;;;15.30;65.00;;;;;;5069497;28;20049;-78
2023/05/16 10:56:02;;;;;;;2.80;1.27;;;15.40;69.20;;;;;;5069293;28;20044;-78
2023/05/16 10:58:34;;;;;;;4.70;0.82;;;15.50;68.90;;;;;;5051207;28;20094;-78
2023/05/16 11:01:24;;;;;;;5.70;1.35;;;15.50;69.10;;;;;;5049953;28;20071;-78
2023/05/16 11:04:05;;;;;;;5.40;1.02;;;15.40;67.50;;;;;;5087106;28;20067;-79
2023/05/16 11:06:32;;;;;;;5.50;1.00;;;15.10;66.30;;;;;;5050560;28;20051;-77
2023/05/16 11:09:08;;;;;;;4.63;0.80;;;15.00;72.10;;;;;;5088695;28;20063;-77
2023/05/16 11:11:50;;;;;;;4.53;1.10;;;14.90;67.00;;;;;;5070033;28;20135;-78
2023/05/16 11:14:33;;;;;;;4.43;1.20;;;14.60;68.80;;;;;;5070544;28;20398;-77
2023/05/16 11:17:20;;;;;;;1.75;0.90;;;14.50;70.90;;;;;;5089237;28;20088;-77
2023/05/16 11:19:54;;;;;;;2.15;0.80;;;14.70;71.90;;;;;;5069511;28;20050;-77
2023/05/16 11:22:25;;;;;;;7.07;1.40;;;14.70;74.80;;;;;;5070474;28;20061;-77
2023/05/16 11:25:06;;;;;;;3.03;1.17;;;14.80;74.60;;;;;;5087207;28;20051;-77
2023/05/16 11:27:35;;;;;;;3.88;0.98;;;14.90;74.60;;;;;;5084181;28;20179;-76
2023/05/16 11:30:14;;;;;;;3.95;1.08;;;15.00;75.40;;;;;;5069592;28;20040;-77
2023/05/16 11:32:43;;;;;;;4.93;1.30;;;15.20;73.60;;;;;;5068644;28;20052;-77
2023/05/16 11:35:11;;;;;;;7.78;1.17;;;15.50;74.10;;;;;;5068816;28;20120;-77
2023/05/16 11:37:40;;;;;;;4.53;1.35;;;15.70;72.50;;;;;;5087652;28;20051;-77
2023/05/16 11:40:07;;;;;;;3.20;1.10;;;15.80;71.80;;;;;;5086123;28;20054;-77
2023/05/16 11:42:41;;;;;;;6.05;1.27;;;16.10;71.30;;;;;;5052606;28;20512;-77
2023/05/16 11:45:18;;;;;;;4.63;1.60;;;16.10;68.80;;;;;;5069358;28;20090;-77
2023/05/16 11:47:46;;;;;;;2.50;1.10;;;16.00;65.70;;;;;;5088690;28;20067;-77
2023/05/16 11:50:20;;;;;;;2.67;1.20;;;15.80;69.30;;;;;;5087751;28;20043;-77
2023/05/16 11:52:52;;;;;;;4.72;1.60;;;15.60;67.90;;;;;;5069979;28;20043;-77
2023/05/16 11:55:23;;;;;;;4.50;1.30;;;15.60;70.10;;;;;;5070287;28;20059;-77
2023/05/16 11:57:52;;;;;;;3.90;1.10;;;15.40;68.80;;;;;;5053038;28;20126;-77
2023/05/16 12:00:20;;;;;;;3.78;1.48;;;15.50;70.70;;;;;;5070133;28;20126;-77
2023/05/16 12:02:47;;;;;;;4.60;1.50;;;15.40;69.60;;;;;;5088627;28;20107;-77
2023/05/16 12:05:14;;;;;;;4.80;1.30;;;15.00;71.20;;;;;;5053680;28;20044;-77
2023/05/16 12:07:41;;;;;;;6.82;1.50;;;14.40;84.10;;;;;;5052943;28;20047;-78
2023/05/16 12:10:08;;;;;;;5.90;1.38;;;13.70;92.60;;;;;;5053730;28;20362;-78
2023/05/16 12:12:35;;;;;;;3.05;1.30;;;13.30;97.50;;;;;;5088095;28;20040;-77
2023/05/16 12:15:02;;;;;;;5.15;1.75;;;12.90;99.90;;;;;;5070149;28;20126;-77
2023/05/16 12:17:28;;;;;;;3.92;1.40;;;12.70;99.90;;;;;;5086990;28;20113;-77
2023/05/16 12:19:54;;;;;;;6.05;1.67;;;12.60;99.90;;;;;;5069430;28;20510;-77
2023/05/16 12:22:20;;;;;;;4.80;1.30;;;12.70;99.90;;;;;;5070098;28;20127;-77
2023/05/16 12:24:48;;;;;;;4.05;1.60;;;12.90;99.90;;;;;;5087149;28;20136;-77
2023/05/16 12:27:21;;;;;;;5.00;1.48;;;13.30;99.90;;;;;;5087032;28;20047;-77
2023/05/16 12:29:48;;;;;;;6.50;1.60;;;13.70;99.90;;;;;;5087244;28;20039;-77
2023/05/16 12:32:18;;;;;;;3.50;1.48;;;14.00;99.90;;;;;;5070009;28;20410;-77
2023/05/16 12:34:50;;;;;;;4.97;1.83;;;14.10;98.20;;;;;;5087471;28;20544;-77
2023/05/16 12:37:15;;;;;;;5.78;1.77;;;13.90;97.60;;;;;;5069855;28;20052;-77
2023/05/16 12:39:41;;;;;;;3.25;1.30;;;14.00;97.90;;;;;;5087609;28;20143;-77
2023/05/16 12:42:10;;;;;;;6.72;2.08;;;14.20;97.40;;;;;;5087956;28;20048;-77
2023/05/16 12:44:36;;;;;;;6.63;2.08;;;14.40;96.30;;;;;;5087287;28;20105;-77
2023/05/16 12:47:01;;;;;;;6.43;1.98;;;14.50;95.80;;;;;;5087601;28;20052;-77
2023/05/16 12:49:27;;;;;;;4.72;1.65;;;14.30;95.20;;;;;;5069929;28;20520;-77
2023/05/16 12:51:55;;;;;;;3.38;1.60;;;14.30;95.40;;;;;;5088231;28;20109;-77